Time;durP1;ratioP1;P1;durP2;ratioP2;P2;SDS_P1;SDS_P2;PMS_P1;PMS_P2;Temp;Humidity;BMP_temperature;BMP_pressure;BME280_temperature;BME280_humidity;BME280_pressure;Samples;Min_cycle;Max_cycle;Signal;HPM_P1;HPM_P2
2022/12/02 00:00:56;;;;;;;41.13;24.63;;;;;;;7.08;60.80;101156.44;5136271;27;20403;-63
2022/12/02 00:03:25;;;;;;;38.55;22.27;;;;;;;7.10;60.27;101154.22;5136136;27;20046;-63
2022/12/02 00:05:55;;;;;;;44.03;25.15;;;;;;;7.03;60.48;101150.88;5138471;27;20055;-63
2022/12/02 00:08:28;;;;;;;40.95;22.88;;;;;;;7.10;60.15;101158.94;5142877;27;20049;-63
2022/12/02 00:11:01;;;;;;;39.78;24.00;;;;;;;7.13;60.57;101150.06;5154317;27;20047;-63
2022/12/02 00:13:37;;;;;;;42.75;25.88;;;;;;;7.12;59.78;101148.41;5154900;27;20414;-63
2022/12/02 00:16:05;;;;;;;38.17;23.98;;;;;;;7.14;60.48;101143.44;5157158;27;20054;-63
2022/12/02 00:18:32;;;;;;;42.25;23.88;;;;;;;7.13;59.88;101152.84;5157135;27;20060;-63
2022/12/02 00:21:01;;;;;;;41.83;24.63;;;;;;;7.11;60.92;101146.75;5156866;27;20057;-63
2022/12/02 00:23:30;;;;;;;39.65;23.00;;;;;;;7.18;60.12;101152.88;5151399;27;20490;-63
2022/12/02 00:25:58;;;;;;;39.70;24.58;;;;;;;7.11;60.86;101149.50;5155503;27;20058;-63
2022/12/02 00:28:26;;;;;;;41.83;24.10;;;;;;;7.03;60.65;101141.75;5156969;27;20050;-63
2022/12/02 00:30:54;;;;;;;43.83;25.50;;;;;;;6.99;59.97;101147.00;5156090;27;20489;-63
2022/12/02 00:33:22;;;;;;;43.15;24.20;;;;;;;6.94;60.52;101137.84;5156160;27;20047;-63
2022/12/02 00:35:49;;;;;;;40.80;24.48;;;;;;;7.01;60.97;101136.47;5147319;27;20062;-64
2022/12/02 00:38:17;;;;;;;41.00;23.48;;;;;;;7.01;61.05;101127.34;5135572;27;20046;-63
2022/12/02 00:40:47;;;;;;;44.97;25.25;;;;;;;7.08;60.98;101128.75;5147987;27;20049;-63
2022/12/02 00:48:44;;;;;;;42.47;24.10;;;;;;;6.97;61.08;101126.22;5162313;27;20057;-63
2022/12/02 00:51:12;;;;;;;40.47;24.70;;;;;;;7.01;60.65;101130.94;5154246;27;20518;-64
2022/12/02 00:53:40;;;;;;;38.72;23.33;;;;;;;6.99;60.76;101121.22;5153173;27;20069;-63
2022/12/02 00:56:09;;;;;;;43.15;25.20;;;;;;;7.05;60.55;101117.38;5155890;27;20054;-63
2022/12/02 00:58:37;;;;;;;41.70;24.65;;;;;;;7.03;60.90;101114.03;5155138;27;20530;-63
2022/12/02 01:01:05;;;;;;;42.80;25.13;;;;;;;6.99;61.46;101112.94;5140878;27;20055;-63
2022/12/02 01:03:33;;;;;;;40.38;25.08;;;;;;;7.04;61.64;101115.72;5135279;27;20054;-63
2022/12/02 01:06:07;;;;;;;42.50;25.15;;;;;;;7.05;61.00;101115.41;5140949;27;20058;-63
2022/12/02 01:08:35;;;;;;;40.83;22.75;;;;;;;7.03;60.91;101111.28;5150949;27;20069;-63
2022/12/02 01:11:03;;;;;;;46.40;25.05;;;;;;;7.05;60.95;101111.81;5155852;27;20053;-65
2022/12/02 01:13:32;;;;;;;48.47;25.85;;;;;;;7.02;60.60;101106.84;5155922;27;20077;-64
2022/12/02 01:16:00;;;;;;;40.00;24.48;;;;;;;7.05;61.65;101107.13;5155063;27;20054;-65
2022/12/02 01:18:28;;;;;;;43.03;24.60;;;;;;;7.00;61.67;101095.22;5154464;27;20050;-64
2022/12/02 01:20:55;;;;;;;41.25;23.52;;;;;;;7.00;60.89;101098.00;5155128;27;20607;-64
2022/12/02 01:23:24;;;;;;;40.65;24.13;;;;;;;6.99;61.54;101099.94;5156025;27;20057;-64
2022/12/02 01:25:55;;;;;;;46.15;25.73;;;;;;;7.04;61.60;101091.63;5156017;27;20077;-65
2022/12/02 01:28:26;;;;;;;46.47;24.48;;;;;;;7.06;61.84;101099.66;5155969;27;20410;-65
2022/12/02 01:30:55;;;;;;;43.20;25.15;;;;;;;7.03;61.09;101098.25;5151697;27;20495;-65
2022/12/02 01:33:23;;;;;;;43.15;23.98;;;;;;;7.00;61.71;101095.22;5152834;27;20042;-65
2022/12/02 01:35:53;;;;;;;45.05;25.75;;;;;;;6.95;61.67;101103.50;5146043;27;20050;-65
2022/12/02 01:38:24;;;;;;;41.60;25.23;;;;;;;6.97;62.17;101098.53;5135293;27;20503;-65
2022/12/02 01:40:55;;;;;;;43.58;23.88;;;;;;;6.95;61.68;101100.72;5134809;27;20050;-65
2022/12/02 01:43:23;;;;;;;44.95;25.30;;;;;;;6.97;61.63;101098.53;5134988;27;20047;-65
2022/12/02 01:45:51;;;;;;;44.45;24.17;;;;;;;7.00;62.17;101103.53;5135284;27;20403;-65
2022/12/02 01:48:20;;;;;;;44.78;26.75;;;;;;;7.03;61.30;101098.25;5141435;27;20046;-65
2022/12/02 01:50:51;;;;;;;43.45;25.05;;;;;;;7.06;61.47;101100.47;5155738;27;20061;-65
2022/12/02 01:53:19;;;;;;;44.85;25.83;;;;;;;7.04;62.12;101110.19;5155763;27;20061;-65
2022/12/02 01:55:47;;;;;;;44.97;25.17;;;;;;;7.06;62.01;101099.66;5155469;27;20046;-65
2022/12/02 01:58:16;;;;;;;44.58;24.92;;;;;;;7.04;62.13;101099.09;5155015;27;20050;-64
2022/12/02 02:00:46;;;;;;;44.50;25.80;;;;;;;7.01;62.72;101094.09;5154986;27;20043;-64
2022/12/02 02:03:17;;;;;;;47.67;27.17;;;;;;;7.04;62.12;101099.09;5145118;27;20050;-64
2022/12/02 02:05:47;;;;;;;39.70;24.33;;;;;;;7.06;61.90;101097.72;5148995;27;20502;-64
2022/12/02 02:08:18;;;;;;;44.97;26.13;;;;;;;7.03;61.67;101097.41;5154698;27;20054;-66
2022/12/02 02:10:47;;;;;;;47.45;26.00;;;;;;;7.01;61.76;101100.47;5154447;27;20054;-64
2022/12/02 02:13:17;;;;;;;42.72;23.80;;;;;;;7.05;61.82;101100.75;5155622;27;20058;-65
2022/12/02 02:15:45;;;;;;;46.55;25.77;;;;;;;7.02;62.94;101093.81;5154981;27;20046;-64
2022/12/02 02:18:15;;;;;;;43.92;24.92;;;;;;;7.05;61.84;101096.03;5150989;27;20517;-65
2022/12/02 02:20:46;;;;;;;39.75;22.60;;;;;;;7.06;61.90;101094.13;5154048;27;20054;-65
2022/12/02 02:23:20;;;;;;;44.13;25.70;;;;;;;7.11;61.90;101091.34;5143288;27;20047;-65
2022/12/02 02:25:55;;;;;;;46.25;24.98;;;;;;;7.08;62.49;101087.19;5154646;27;20062;-65
2022/12/02 02:28:24;;;;;;;49.92;27.25;;;;;;;7.04;63.09;101077.75;5154725;27;20051;-65
2022/12/02 02:30:57;;;;;;;47.60;26.42;;;;;;;7.07;63.10;101079.16;5154318;27;20051;-65
2022/12/02 02:33:26;;;;;;;42.33;24.55;;;;;;;7.07;62.27;101079.16;5154737;27;20471;-65
2022/12/02 02:35:54;;;;;;;47.05;27.08;;;;;;;7.07;62.52;101073.59;5131613;27;20407;-65
2022/12/02 02:38:25;;;;;;;51.60;27.25;;;;;;;6.99;63.34;101075.00;5134393;27;20055;-65
2022/12/02 02:40:54;;;;;;;45.90;26.60;;;;;;;6.99;63.48;101074.16;5131706;27;20062;-64
2022/12/02 02:43:25;;;;;;;48.53;25.85;;;;;;;7.00;62.68;101075.81;5133075;27;20051;-65
2022/12/02 02:45:54;;;;;;;42.88;23.75;;;;;;;7.05;63.22;101068.34;5133246;27;20415;-64
2022/12/02 02:48:26;;;;;;;43.45;24.65;;;;;;;7.07;62.40;101070.84;5139349;27;20051;-65
2022/12/02 02:50:56;;;;;;;49.08;26.88;;;;;;;7.06;63.00;101063.66;5149662;27;20058;-65
2022/12/02 02:53:26;;;;;;;44.13;25.00;;;;;;;7.02;62.91;101065.31;5154494;27;20050;-65
2022/12/02 02:55:54;;;;;;;47.28;26.45;;;;;;;7.03;62.40;101064.19;5153956;27;20047;-65
2022/12/02 02:58:24;;;;;;;44.60;24.75;;;;;;;7.04;62.83;101049.25;5154519;27;20077;-64
2022/12/02 03:00:55;;;;;;;48.30;26.02;;;;;;;7.02;63.73;101052.28;5153844;27;20054;-65
2022/12/02 03:03:25;;;;;;;44.38;24.35;;;;;;;7.03;62.49;101053.09;5132328;28;20495;-65
2022/12/02 03:05:58;;;;;;;47.92;28.17;;;;;;;7.06;63.25;101049.81;5132875;28;20051;-65
2022/12/02 03:08:30;;;;;;;48.13;26.75;;;;;;;7.01;62.88;101047.00;5133566;28;20046;-64
2022/12/02 03:11:01;;;;;;;44.63;25.13;;;;;;;6.99;63.74;101044.53;5133645;28;20059;-65
2022/12/02 03:13:31;;;;;;;45.60;26.23;;;;;;;7.03;63.51;101036.47;5135518;27;20047;-65
2022/12/02 03:16:01;;;;;;;42.53;24.00;;;;;;;7.03;63.75;101042.84;5137582;27;20406;-65
2022/12/02 03:18:31;;;;;;;45.47;25.95;;;;;;;7.05;63.18;101037.03;5155842;27;20414;-65
2022/12/02 03:21:00;;;;;;;49.63;25.85;;;;;;;6.99;63.75;101041.78;5158079;27;20050;-65
2022/12/02 03:23:32;;;;;;;44.90;24.73;;;;;;;7.01;63.43;101027.63;5158185;27;20410;-65
2022/12/02 03:26:01;;;;;;;47.40;26.17;;;;;;;7.07;62.78;101034.81;5158088;27;20050;-65
2022/12/02 03:28:29;;;;;;;47.58;24.42;;;;;;;7.08;63.40;101025.44;5159066;27;20058;-64
2022/12/02 03:30:58;;;;;;;45.83;25.67;;;;;;;6.98;63.00;101029.00;5147525;27;20540;-65
2022/12/02 03:33:27;;;;;;;37.75;22.63;;;;;;;7.02;63.89;101029.31;5138065;27;20493;-65
2022/12/02 03:35:55;;;;;;;50.95;26.00;;;;;;;6.96;63.45;101022.91;5137087;27;20505;-65
2022/12/02 03:38:23;;;;;;;44.58;25.50;;;;;;;6.96;64.24;101027.63;5138358;27;20492;-65
2022/12/02 03:40:53;;;;;;;47.53;26.02;;;;;;;7.01;63.81;101016.53;5137388;27;20051;-65
2022/12/02 03:43:21;;;;;;;;;;;;;;;6.97;63.26;101012.66;5138444;27;20054;-65
2022/12/02 03:45:48;;;;;;;49.03;26.75;;;;;;;6.91;63.25;101012.69;5141910;27;19918;-65
2022/12/02 03:48:20;;;;;;;44.95;26.13;;;;;;;6.94;63.77;101014.06;5157491;27;20057;-65
2022/12/02 03:50:49;;;;;;;53.65;27.48;;;;;;;6.96;63.78;101014.59;5157181;27;20058;-65
2022/12/02 03:53:16;;;;;;;50.38;26.70;;;;;;;6.98;63.53;101017.13;5156767;27;20050;-65
2022/12/02 03:55:44;;;;;;;49.10;28.13;;;;;;;6.95;63.91;101010.19;5155379;27;20046;-65
2022/12/02 03:58:14;;;;;;;52.30;27.85;;;;;;;7.00;63.77;101009.34;5157341;27;20058;-65
2022/12/02 04:00:45;;;;;;;56.45;29.20;;;;;;;6.96;64.23;101014.59;5157411;27;20051;-64
2022/12/02 04:03:12;;;;;;;51.35;25.80;;;;;;;7.04;64.20;101010.47;5156944;27;20047;-65
2022/12/02 04:05:43;;;;;;;51.50;26.42;;;;;;;7.05;62.95;101004.63;5156878;27;20046;-65
2022/12/02 04:08:11;;;;;;;55.55;28.30;;;;;;;7.04;62.91;101002.97;5151344;27;20063;-65
2022/12/02 04:10:38;;;;;;;56.17;27.38;;;;;;;7.05;63.06;100993.53;5146138;27;20415;-65
2022/12/02 04:13:06;;;;;;;56.58;26.95;;;;;;;6.94;63.04;100999.38;5136261;27;20051;-65
2022/12/02 04:15:36;;;;;;;58.28;29.30;;;;;;;7.00;63.16;100995.50;5136934;27;20385;-65
2022/12/02 04:18:03;;;;;;;;;;;;;;;6.94;63.44;100985.53;5137283;27;20054;-66
2022/12/02 04:20:31;;;;;;;62.30;28.17;;;;;;;6.93;63.69;100986.63;5149070;27;20286;-65
2022/12/02 04:22:59;;;;;;;56.42;26.73;;;;;;;6.86;63.63;100979.44;5156774;27;20061;-65
2022/12/02 04:25:26;;;;;;;55.47;27.10;;;;;;;6.84;63.68;100989.94;5156859;27;20053;-65
2022/12/02 04:27:54;;;;;;;55.33;27.50;;;;;;;6.84;64.74;100986.34;5156396;27;20054;-65
2022/12/02 04:30:21;;;;;;;56.80;26.80;;;;;;;6.92;64.44;100983.03;5156620;27;20407;-65
2022/12/02 04:32:56;;;;;;;55.50;26.90;;;;;;;6.91;64.51;100982.22;5154454;27;20046;-64
2022/12/02 04:35:24;;;;;;;60.88;29.02;;;;;;;6.93;64.23;100978.31;5153563;27;20076;-65
2022/12/02 04:37:54;;;;;;;57.15;28.60;;;;;;;6.91;64.00;100976.69;5153654;27;20047;-65
2022/12/02 04:40:24;;;;;;;55.47;27.52;;;;;;;6.94;64.46;100971.69;5156044;27;20050;-65
2022/12/02 04:42:52;;;;;;;57.40;27.70;;;;;;;6.93;64.54;100984.72;5155937;27;20054;-65
2022/12/02 04:45:19;;;;;;;53.53;26.05;;;;;;;6.96;64.86;100981.38;5152280;27;20051;-65
2022/12/02 04:47:47;;;;;;;59.20;27.42;;;;;;;6.96;64.11;100977.78;5155800;27;20055;-65
2022/12/02 04:50:16;;;;;;;55.97;24.90;;;;;;;6.97;63.61;100976.66;5155901;27;20051;-65
2022/12/02 04:52:43;;;;;;;63.58;28.25;;;;;;;6.91;63.47;100975.84;5156159;27;20062;-65
2022/12/02 04:55:10;;;;;;;55.13;26.17;;;;;;;6.83;63.58;100979.19;5155474;27;20051;-65
2022/12/02 04:57:37;;;;;;;65.55;29.30;;;;;;;6.99;63.98;100985.53;5143062;27;20086;-65
2022/12/02 05:00:06;;;;;;;60.83;26.92;;;;;;;7.03;64.36;100981.09;5147480;27;20047;-65
2022/12/02 05:02:34;;;;;;;62.63;27.83;;;;;;;6.98;64.26;100972.78;5155879;27;20051;-65
2022/12/02 05:05:01;;;;;;;54.45;26.75;;;;;;;7.00;63.38;100976.94;5155142;27;21006;-65
2022/12/02 05:07:30;;;;;;;56.83;25.92;;;;;;;7.01;63.91;100969.47;5155521;27;20467;-66
2022/12/02 05:09:57;;;;;;;57.13;26.45;;;;;;;7.02;63.96;100974.72;5114261;28;20078;-65
2022/12/02 05:12:25;;;;;;;55.35;26.02;;;;;;;6.99;63.59;100960.59;5136549;27;20047;-65
2022/12/02 05:14:53;;;;;;;60.45;28.73;;;;;;;6.98;63.70;100968.09;5156950;27;20050;-65
2022/12/02 05:17:20;;;;;;;52.80;24.90;;;;;;;7.00;63.07;100959.50;5157186;27;20501;-65
2022/12/02 05:19:48;;;;;;;57.13;24.45;;;;;;;6.93;63.62;100964.47;5156548;27;20054;-65
2022/12/02 05:22:16;;;;;;;50.67;24.25;;;;;;;6.94;63.11;100957.84;5156336;27;20478;-65
2022/12/02 05:24:47;;;;;;;51.22;23.70;;;;;;;6.96;62.68;100950.91;5151050;27;20055;-65
2022/12/02 05:27:16;;;;;;;48.40;23.77;;;;;;;6.93;63.08;100956.16;5151020;27;20046;-65
2022/12/02 05:29:44;;;;;;;46.53;21.90;;;;;;;6.84;63.74;100955.91;5155629;27;20062;-65
2022/12/02 05:32:12;;;;;;;49.42;24.13;;;;;;;6.84;62.79;100958.66;5155604;27;20065;-65
2022/12/02 05:37:34;;;;;;;50.53;25.45;;;;;;;6.76;63.55;100951.78;5150335;27;20062;-66
2022/12/02 05:40:06;;;;;;;48.90;23.85;;;;;;;6.68;63.31;100955.09;5138041;27;20043;-65
2022/12/02 05:42:35;;;;;;;54.70;25.05;;;;;;;6.63;63.69;100955.91;5150512;27;20050;-65
2022/12/02 05:45:14;;;;;;;49.17;23.00;;;;;;;6.70;63.38;100953.69;5154547;27;20502;-65
2022/12/02 05:47:42;;;;;;;52.70;24.07;;;;;;;6.69;63.02;100951.19;5155075;27;20047;-65
2022/12/02 05:50:12;;;;;;;46.78;23.17;;;;;;;6.72;63.73;100953.44;5155098;27;20078;-65
2022/12/02 05:52:42;;;;;;;45.03;22.67;;;;;;;6.79;63.79;100951.19;5153785;27;20055;-65
2022/12/02 05:55:15;;;;;;;49.42;24.73;;;;;;;6.80;63.39;100955.63;5155607;27;20046;-65
2022/12/02 05:57:43;;;;;;;46.72;22.90;;;;;;;6.77;62.70;100952.59;5141646;27;20050;-65
2022/12/02 06:00:18;;;;;;;46.92;23.42;;;;;;;6.79;62.68;100951.19;5134208;27;20480;-65
2022/12/02 06:02:47;;;;;;;46.75;22.95;;;;;;;6.77;62.75;100949.81;5134273;27;20051;-65
2022/12/02 06:05:20;;;;;;;45.63;22.60;;;;;;;6.75;62.71;100952.88;5134165;27;20400;-66
2022/12/02 06:07:50;;;;;;;42.80;22.35;;;;;;;6.71;62.88;100951.75;5144406;27;20042;-65
2022/12/02 06:10:22;;;;;;;;;;;;;;;6.67;63.19;100961.72;5152807;27;20043;-65
2022/12/02 06:12:50;;;;;;;45.97;23.40;;;;;;;6.67;62.98;100961.72;5154188;27;19919;-65
2022/12/02 06:15:27;;;;;;;52.28;24.42;;;;;;;6.58;63.09;100953.13;5154361;27;20054;-65
2022/12/02 06:17:58;;;;;;;52.45;22.83;;;;;;;6.59;64.16;100960.31;5156209;27;20050;-66
2022/12/02 06:20:28;;;;;;;47.08;23.02;;;;;;;6.55;64.03;100962.00;5154455;27;20051;-65
2022/12/02 06:22:56;;;;;;;46.70;23.48;;;;;;;6.64;63.62;100965.88;5146350;27;20055;-65
2022/12/02 06:25:27;;;;;;;50.92;23.75;;;;;;;6.67;64.06;100967.25;5140457;27;20051;-65
2022/12/02 06:28:01;;;;;;;44.60;23.35;;;;;;;6.57;63.88;100968.06;5135442;27;20042;-65
2022/12/02 06:30:29;;;;;;;45.13;24.02;;;;;;;6.61;63.17;100965.59;5153809;27;20050;-66
2022/12/02 06:32:59;;;;;;;43.33;22.92;;;;;;;6.70;63.94;100969.50;5153432;27;20053;-67
2022/12/02 06:35:32;;;;;;;39.10;20.13;;;;;;;6.71;63.19;100971.13;5154188;27;20057;-65
2022/12/02 06:38:02;;;;;;;44.65;22.63;;;;;;;6.76;63.54;100965.63;5150639;27;20050;-66
2022/12/02 06:40:35;;;;;;;46.00;22.27;;;;;;;6.74;63.73;100973.38;5135513;27;20054;-65
2022/12/02 06:43:12;;;;;;;40.25;21.45;;;;;;;6.78;63.51;100962.53;5148257;27;20062;-66
2022/12/02 06:45:41;;;;;;;41.65;22.25;;;;;;;6.70;62.72;100967.53;5150498;27;20066;-65
2022/12/02 06:48:31;;;;;;;41.47;21.30;;;;;;;6.77;63.37;100961.72;5149064;27;20047;-65
2022/12/02 06:51:06;;;;;;;43.60;21.17;;;;;;;6.78;63.36;100962.53;5152159;27;20077;-66
2022/12/02 06:53:35;;;;;;;42.80;20.73;;;;;;;6.75;62.78;100966.72;5126849;27;20051;-66
2022/12/02 06:56:11;;;;;;;;;;;;;;;6.70;63.37;100963.94;5131341;28;20411;-66
2022/12/02 06:58:45;;;;;;;39.67;20.38;;;;;;;6.75;62.81;100968.66;5125860;27;19941;-65
2022/12/02 07:01:23;;;;;;;41.35;20.55;;;;;;;6.78;62.81;100957.84;5129124;27;20050;-65
2022/12/02 07:04:31;;;;;;;47.80;23.83;;;;;;;6.73;63.00;100965.31;5118235;27;20039;-65
2022/12/02 07:07:01;;;;;;;40.45;21.52;;;;;;;6.75;62.96;100957.56;5118346;27;20467;-67
2022/12/02 07:09:37;;;;;;;42.35;22.52;;;;;;;6.76;62.54;100957.31;5113499;27;20614;-65
2022/12/02 07:12:15;;;;;;;40.45;21.45;;;;;;;6.78;62.91;100957.84;5132522;28;20410;-65
2022/12/02 07:14:46;;;;;;;40.15;19.90;;;;;;;6.73;62.41;100957.03;5124251;27;20050;-66
2022/12/02 07:17:25;;;;;;;38.92;21.05;;;;;;;6.76;63.26;100965.63;5119218;28;20044;-66
2022/12/02 07:19:58;;;;;;;41.97;21.58;;;;;;;6.71;62.51;100963.66;5121441;27;20051;-66
2022/12/02 07:22:33;;;;;;;38.65;21.38;;;;;;;6.74;62.14;100962.28;5123958;28;20086;-65
2022/12/02 07:25:23;;;;;;;41.58;20.73;;;;;;;6.73;62.17;100963.38;5116413;28;20078;-65
2022/12/02 07:27:52;;;;;;;40.10;21.25;;;;;;;6.68;62.48;100961.44;5128198;27;20039;-65
2022/12/02 07:30:26;;;;;;;37.60;20.63;;;;;;;6.72;63.14;100975.56;5141276;27;20053;-65
2022/12/02 07:32:54;;;;;;;38.55;21.02;;;;;;;6.75;62.23;100958.41;5141674;27;20045;-65
2022/12/02 07:35:22;;;;;;;32.03;18.67;;;;;;;6.79;62.95;100970.59;5150868;27;20054;-67
2022/12/02 07:37:51;;;;;;;40.67;21.52;;;;;;;6.77;62.01;100960.91;5141288;27;20070;-65
2022/12/02 07:40:19;;;;;;;;;;;;;;;6.77;61.97;100961.72;5134094;28;20051;-65
2022/12/02 07:42:47;;;;;;;37.47;19.88;;;;;;;6.78;62.23;100957.84;5134776;27;19927;-65
2022/12/02 07:45:19;;;;;;;35.55;19.42;;;;;;;6.73;62.55;100957.84;5133112;28;20051;-65
2022/12/02 07:47:47;;;;;;;36.97;20.33;;;;;;;6.73;62.30;100957.84;5131137;28;20047;-65
2022/12/02 07:50:17;;;;;;;37.72;19.35;;;;;;;6.75;62.86;100954.81;5135430;27;20047;-65
2022/12/02 07:52:48;;;;;;;34.40;19.77;;;;;;;6.75;62.74;100961.16;5128419;28;20055;-66
2022/12/02 07:55:19;;;;;;;37.65;20.73;;;;;;;6.69;61.89;100953.97;5132423;28;20055;-66
2022/12/02 07:57:47;;;;;;;33.47;19.48;;;;;;;6.59;62.79;100959.50;5131491;27;20427;-65
2022/12/02 08:00:17;;;;;;;33.03;19.15;;;;;;;6.66;62.39;100949.00;5132437;27;20039;-66
2022/12/02 08:02:45;;;;;;;33.78;19.90;;;;;;;6.63;62.88;100957.84;5129085;27;20047;-66
2022/12/02 08:05:16;;;;;;;34.53;20.40;;;;;;;6.73;61.84;100952.31;5129440;27;20157;-66
2022/12/02 08:07:46;;;;;;;34.53;19.50;;;;;;;6.74;62.05;100955.91;5137044;27;20055;-66
2022/12/02 08:10:14;;;;;;;33.35;19.98;;;;;;;6.80;62.39;100955.63;5130986;27;20110;-66
2022/12/02 08:12:42;;;;;;;33.10;20.20;;;;;;;6.86;61.60;100954.50;5130235;27;20055;-66
2022/12/02 08:15:13;;;;;;;30.10;18.00;;;;;;;6.93;61.95;100948.72;5131750;27;20051;-66
2022/12/02 08:17:43;;;;;;;31.23;18.92;;;;;;;6.96;61.49;100944.56;5131949;27;20487;-66
2022/12/02 08:20:13;;;;;;;32.92;18.45;;;;;;;7.00;60.93;100954.78;5130290;27;20051;-66
2022/12/02 08:22:41;;;;;;;29.75;18.10;;;;;;;6.99;61.64;100949.53;5130200;27;20055;-66
2022/12/02 08:25:09;;;;;;;28.13;16.70;;;;;;;7.02;61.21;100943.44;5133340;27;20051;-66
2022/12/02 08:27:39;;;;;;;30.20;17.23;;;;;;;7.02;60.64;100952.56;5130376;27;20051;-66
2022/12/02 08:30:08;;;;;;;28.77;17.00;;;;;;;7.11;61.32;100950.06;5130395;27;20051;-66
2022/12/02 08:32:36;;;;;;;26.35;15.30;;;;;;;7.07;60.65;100943.41;5129442;27;20051;-66
2022/12/02 08:35:06;;;;;;;28.60;17.65;;;;;;;7.06;61.24;100956.44;5130783;27;20050;-66
2022/12/02 08:37:33;;;;;;;;;;;;;;;7.07;60.41;100949.78;5132865;27;20054;-67
2022/12/02 08:40:02;;;;;;;27.15;15.68;;;;;;;7.10;60.81;100948.41;5131405;27;19923;-66
2022/12/02 08:42:30;;;;;;;29.73;17.25;;;;;;;7.05;60.78;100951.19;5130318;27;20391;-66
2022/12/02 08:44:58;;;;;;;23.40;14.15;;;;;;;7.13;60.65;100952.56;5131346;27;20058;-67
2022/12/02 08:47:25;;;;;;;23.90;14.98;;;;;;;7.14;61.30;100954.19;5130495;27;20058;-66
2022/12/02 08:49:53;;;;;;;24.35;15.18;;;;;;;7.16;60.62;100954.75;5131994;27;20062;-66
2022/12/02 08:52:22;;;;;;;22.50;14.48;;;;;;;7.15;60.57;100959.47;5132532;27;20055;-66
2022/12/02 08:54:50;;;;;;;19.42;11.90;;;;;;;7.18;61.02;100956.16;5129731;27;20062;-66
2022/12/02 08:57:22;;;;;;;19.98;13.27;;;;;;;7.21;59.84;100965.84;5121376;27;20467;-67
2022/12/02 08:59:49;;;;;;;21.80;13.65;;;;;;;7.19;59.68;100951.44;5130066;27;20043;-66
2022/12/02 09:02:19;;;;;;;22.48;13.70;;;;;;;7.22;60.65;100954.47;5129163;27;20054;-66
2022/12/02 09:04:46;;;;;;;21.55;14.32;;;;;;;7.29;60.47;100955.03;5125056;27;20059;-66
2022/12/02 09:07:17;;;;;;;22.40;14.55;;;;;;;7.15;59.11;100959.47;5129446;27;20639;-66
2022/12/02 09:09:46;;;;;;;20.73;14.00;;;;;;;7.17;60.30;100962.78;5127509;27;20058;-66
2022/12/02 09:12:14;;;;;;;19.98;12.50;;;;;;;7.16;59.57;100963.06;5130262;27;20055;-66
2022/12/02 09:14:41;;;;;;;20.45;13.23;;;;;;;7.11;59.84;100964.72;5129373;27;20051;-66
2022/12/02 09:17:12;;;;;;;21.92;13.68;;;;;;;7.19;60.21;100962.53;5127780;27;20054;-66
2022/12/02 09:19:39;;;;;;;21.65;14.27;;;;;;;7.20;59.14;100970.56;5128573;27;20484;-66
2022/12/02 09:22:07;;;;;;;47.22;17.85;;;;;;;7.23;59.11;100964.44;5128232;27;20047;-66
2022/12/02 09:24:35;;;;;;;21.15;14.15;;;;;;;7.24;59.17;100966.09;5124855;27;20047;-67
2022/12/02 09:27:06;;;;;;;19.15;13.45;;;;;;;7.13;59.58;100961.69;5127517;27;20054;-67
2022/12/02 09:29:34;;;;;;;21.88;14.43;;;;;;;7.03;59.47;100965.28;5127574;27;20047;-67
2022/12/02 09:32:02;;;;;;;21.48;14.05;;;;;;;7.09;59.55;100966.13;5124582;27;20054;-67
2022/12/02 09:34:29;;;;;;;18.67;13.43;;;;;;;7.07;59.80;100960.03;5130917;27;20055;-67
2022/12/02 09:36:57;;;;;;;19.88;13.98;;;;;;;7.07;59.79;100965.56;5128396;27;20423;-67
2022/12/02 09:39:24;;;;;;;19.88;13.75;;;;;;;7.17;59.40;100957.25;5123086;27;20051;-66
2022/12/02 09:41:52;;;;;;;21.15;13.93;;;;;;;7.13;58.91;100958.09;5127992;27;20460;-66
2022/12/02 09:44:21;;;;;;;20.75;13.52;;;;;;;7.17;59.71;100962.78;5129494;27;20051;-67
2022/12/02 09:46:49;;;;;;;22.15;14.43;;;;;;;7.11;58.82;100966.69;5127784;27;20065;-66
2022/12/02 09:49:19;;;;;;;20.33;15.20;;;;;;;7.23;59.70;100958.91;5127586;27;20055;-66
2022/12/02 09:51:46;;;;;;;;;;;;;;;7.19;60.19;100951.44;5126602;27;20539;-66
2022/12/02 09:54:16;;;;;;;18.83;13.25;;;;;;;7.24;59.16;100963.31;5128149;27;19942;-66
2022/12/02 09:56:44;;;;;;;21.35;14.73;;;;;;;7.30;59.71;100955.84;5128354;27;20451;-67
2022/12/02 09:59:15;;;;;;;22.02;14.75;;;;;;;7.22;58.71;100954.47;5126891;27;20426;-66
2022/12/02 10:01:47;;;;;;;21.13;14.65;;;;;;;7.29;59.23;100955.03;5129993;27;20058;-66
2022/12/02 10:04:18;;;;;;;23.23;14.85;;;;;;;7.27;59.65;100954.47;5129066;27;20061;-66
2022/12/02 10:06:46;;;;;;;21.08;14.38;;;;;;;7.30;58.60;100951.13;5127937;27;20066;-66
2022/12/02 10:09:17;;;;;;;24.13;15.77;;;;;;;7.33;59.29;100960.84;5126633;27;20061;-66
2022/12/02 10:11:45;;;;;;;24.70;16.08;;;;;;;7.24;59.46;100955.00;5128735;27;20063;-67
2022/12/02 10:14:13;;;;;;;21.65;14.88;;;;;;;7.37;58.10;100950.00;5121911;27;20051;-67
2022/12/02 10:16:42;;;;;;;25.08;16.25;;;;;;;7.28;58.70;100949.75;5129251;27;20055;-66
2022/12/02 10:19:17;;;;;;;24.83;16.60;;;;;;;7.24;58.00;100949.47;5127054;27;20051;-66
2022/12/02 10:21:45;;;;;;;26.75;16.23;;;;;;;7.24;58.64;100949.47;5127491;27;20384;-66
2022/12/02 10:24:13;;;;;;;26.17;17.33;;;;;;;7.21;59.43;100954.75;5126054;27;20046;-66
2022/12/02 10:26:46;;;;;;;27.42;18.08;;;;;;;7.04;58.64;100952.31;5128947;27;20384;-66
2022/12/02 10:29:19;;;;;;;26.33;17.08;;;;;;;7.20;59.61;100947.53;5127192;27;20054;-66
2022/12/02 10:31:58;;;;;;;24.75;17.10;;;;;;;7.31;59.46;100949.19;5124698;27;20419;-66
2022/12/02 10:34:29;;;;;;;29.10;18.02;;;;;;;7.19;58.22;100948.66;5122567;27;20415;-67
2022/12/02 10:36:56;;;;;;;28.42;18.17;;;;;;;7.10;58.96;100951.19;5124293;27;20055;-66
2022/12/02 10:39:27;;;;;;;26.13;17.55;;;;;;;7.18;59.27;100935.91;5123018;27;20559;-66
2022/12/02 10:42:15;;;;;;;26.15;17.40;;;;;;;7.21;59.19;100935.38;5124948;27;20055;-67
2022/12/02 10:44:45;;;;;;;26.55;17.25;;;;;;;7.26;58.48;100935.34;5126487;27;20063;-66
2022/12/02 10:47:18;;;;;;;30.02;18.58;;;;;;;7.35;58.70;100935.59;5127415;27;20066;-66
2022/12/02 10:49:51;;;;;;;27.58;18.23;;;;;;;7.30;58.10;100930.91;5123970;27;20051;-66
2022/12/02 10:52:23;;;;;;;29.35;18.13;;;;;;;7.34;58.12;100936.72;5127187;27;20522;-67
2022/12/02 10:54:54;;;;;;;30.17;18.00;;;;;;;7.33;58.28;100927.59;5127435;28;20055;-66
2022/12/02 10:57:24;;;;;;;30.13;19.52;;;;;;;7.03;58.41;100929.28;5125693;27;20043;-67
2022/12/02 10:59:53;;;;;;;29.05;18.80;;;;;;;7.12;59.16;100924.03;5126451;28;20146;-66
2022/12/02 11:02:24;;;;;;;28.70;18.40;;;;;;;7.26;58.44;100921.50;5127236;27;20054;-66
2022/12/02 11:04:53;;;;;;;30.02;19.15;;;;;;;7.37;57.80;100920.38;5127566;28;20077;-66
2022/12/02 11:07:23;;;;;;;29.08;18.05;;;;;;;7.19;58.98;100926.50;5121510;27;20135;-66
2022/12/02 11:09:54;;;;;;;27.67;18.95;;;;;;;7.32;58.78;100917.59;5126359;28;20353;-67
2022/12/02 11:12:37;;;;;;;31.25;18.45;;;;;;;7.39;57.66;100918.16;5130950;27;20055;-67
2022/12/02 11:15:36;;;;;;;29.38;18.55;;;;;;;7.43;58.25;100918.38;5127778;27;20051;-66
2022/12/02 11:18:06;;;;;;;29.10;19.25;;;;;;;7.58;57.69;100915.59;5126331;27;20047;-67
2022/12/02 11:20:43;;;;;;;28.52;18.65;;;;;;;7.62;58.54;100921.38;5127079;28;20047;-67
2022/12/02 11:23:23;;;;;;;30.02;19.48;;;;;;;7.63;57.14;100912.78;5126876;27;20415;-66
2022/12/02 11:26:07;;;;;;;31.65;19.05;;;;;;;7.56;57.01;100912.25;5127668;28;20051;-66
2022/12/02 11:29:18;;;;;;;31.52;19.25;;;;;;;7.67;56.59;100913.88;5126542;28;20063;-66
2022/12/02 11:32:01;;;;;;;30.17;19.27;;;;;;;7.81;57.19;100918.78;5125938;27;20055;-66
2022/12/02 11:34:51;;;;;;;28.52;18.25;;;;;;;7.67;56.11;100908.31;5123108;27;20051;-67
2022/12/02 11:37:41;;;;;;;28.95;18.83;;;;;;;7.46;56.44;100909.53;5130772;27;20055;-66
2022/12/02 11:40:41;;;;;;;29.48;18.63;;;;;;;7.50;56.45;100905.91;5132253;27;20049;-66
2022/12/02 11:43:46;;;;;;;35.45;20.55;;;;;;;7.36;56.36;100904.00;5104380;27;20059;-66